sensor_id;sensor_type;location;lat;lon;timestamp;temperature;humidity
15413;DHT22;7805;49.554;7.632;2022-10-16T00:00:41;16.40;99.90
15413;DHT22;7805;49.554;7.632;2022-10-16T00:03:07;16.40;99.90
15413;DHT22;7805;49.554;7.632;2022-10-16T00:05:37;16.40;99.90
15413;DHT22;7805;49.554;7.632;2022-10-16T00:08:03;16.40;99.90
15413;DHT22;7805;49.554;7.632;2022-10-16T00:10:29;16.50;99.90
15413;DHT22;7805;49.554;7.632;2022-10-16T00:12:54;16.60;99.90
15413;DHT22;7805;49.554;7.632;2022-10-16T00:15:20;16.50;99.90
15413;DHT22;7805;49.554;7.632;2022-10-16T00:17:45;16.50;99.90
15413;DHT22;7805;49.554;7.632;2022-10-16T00:20:11;16.50;99.90
15413;DHT22;7805;49.554;7.632;2022-10-16T00:22:36;16.50;99.90
15413;DHT22;7805;49.554;7.632;2022-10-16T00:25:02;16.60;99.90
15413;DHT22;7805;49.554;7.632;2022-10-16T00:27:28;16.60;99.90
15413;DHT22;7805;49.554;7.632;2022-10-16T00:29:53;16.50;99.90
15413;DHT22;7805;49.554;7.632;2022-10-16T00:32:19;16.60;99.90
15413;DHT22;7805;49.554;7.632;2022-10-16T00:34:45;16.60;99.90
15413;DHT22;7805;49.554;7.632;2022-10-16T00:37:12;16.60;99.90
15413;DHT22;7805;49.554;7.632;2022-10-16T00:39:38;16.50;99.90
15413;DHT22;7805;49.554;7.632;2022-10-16T00:42:04;16.50;99.90
15413;DHT22;7805;49.554;7.632;2022-10-16T00:44:49;16.50;99.90
15413;DHT22;7805;49.554;7.632;2022-10-16T00:47:22;16.50;99.90
15413;DHT22;7805;49.554;7.632;2022-10-16T00:49:50;16.50;99.90
15413;DHT22;7805;49.554;7.632;2022-10-16T00:52:17;16.50;99.90
15413;DHT22;7805;49.554;7.632;2022-10-16T00:54:43;16.50;99.90
15413;DHT22;7805;49.554;7.632;2022-10-16T00:57:11;16.40;99.90
15413;DHT22;7805;49.554;7.632;2022-10-16T00:59:39;16.60;99.90
15413;DHT22;7805;49.554;7.632;2022-10-16T01:02:07;16.40;99.90
15413;DHT22;7805;49.554;7.632;2022-10-16T01:04:39;16.50;99.90
15413;DHT22;7805;49.554;7.632;2022-10-16T01:14:54;16.40;99.90
15413;DHT22;7805;49.554;7.632;2022-10-16T01:17:32;16.40;99.90
15413;DHT22;7805;49.554;7.632;2022-10-16T01:28:36;16.50;99.90
15413;DHT22;7805;49.554;7.632;2022-10-16T01:31:04;16.80;99.90
15413;DHT22;7805;49.554;7.632;2022-10-16T01:33:43;16.60;99.90
15413;DHT22;7805;49.554;7.632;2022-10-16T01:36:15;16.60;99.90
15413;DHT22;7805;49.554;7.632;2022-10-16T01:38:43;16.70;99.90
15413;DHT22;7805;49.554;7.632;2022-10-16T01:43:53;16.50;99.90
15413;DHT22;7805;49.554;7.632;2022-10-16T01:46:23;14.80;99.90
15413;DHT22;7805;49.554;7.632;2022-10-16T01:48:50;16.50;99.90
15413;DHT22;7805;49.554;7.632;2022-10-16T01:51:18;16.40;99.90
15413;DHT22;7805;49.554;7.632;2022-10-16T01:53:49;16.40;99.90
15413;DHT22;7805;49.554;7.632;2022-10-16T01:56:17;16.40;99.90
15413;DHT22;7805;49.554;7.632;2022-10-16T01:58:51;16.30;99.90
15413;DHT22;7805;49.554;7.632;2022-10-16T02:01:19;16.30;99.90
15413;DHT22;7805;49.554;7.632;2022-10-16T02:03:46;16.40;99.90
15413;DHT22;7805;49.554;7.632;2022-10-16T02:06:14;16.40;99.90
15413;DHT22;7805;49.554;7.632;2022-10-16T02:08:40;16.40;99.90
15413;DHT22;7805;49.554;7.632;2022-10-16T02:11:10;16.30;99.90
15413;DHT22;7805;49.554;7.632;2022-10-16T02:16:01;16.30;99.90
15413;DHT22;7805;49.554;7.632;2022-10-16T02:18:27;16.40;99.90
15413;DHT22;7805;49.554;7.632;2022-10-16T02:23:41;16.40;99.90
15413;DHT22;7805;49.554;7.632;2022-10-16T02:26:14;16.40;99.90
15413;DHT22;7805;49.554;7.632;2022-10-16T02:28:49;16.60;99.90
15413;DHT22;7805;49.554;7.632;2022-10-16T02:31:20;16.40;99.90
15413;DHT22;7805;49.554;7.632;2022-10-16T02:33:50;16.40;99.90
15413;DHT22;7805;49.554;7.632;2022-10-16T02:36:16;16.40;99.90
15413;DHT22;7805;49.554;7.632;2022-10-16T02:38:42;16.40;99.90
15413;DHT22;7805;49.554;7.632;2022-10-16T02:41:08;16.30;99.90
15413;DHT22;7805;49.554;7.632;2022-10-16T02:43:34;16.30;99.90
15413;DHT22;7805;49.554;7.632;2022-10-16T02:46:00;16.30;99.90
15413;DHT22;7805;49.554;7.632;2022-10-16T02:48:26;16.30;99.90
15413;DHT22;7805;49.554;7.632;2022-10-16T02:50:51;16.30;99.90
15413;DHT22;7805;49.554;7.632;2022-10-16T02:53:17;16.30;99.90
15413;DHT22;7805;49.554;7.632;2022-10-16T02:55:42;16.30;99.90
15413;DHT22;7805;49.554;7.632;2022-10-16T02:58:08;16.20;99.90
15413;DHT22;7805;49.554;7.632;2022-10-16T03:00:33;16.50;99.90
15413;DHT22;7805;49.554;7.632;2022-10-16T03:02:59;16.30;99.90
15413;DHT22;7805;49.554;7.632;2022-10-16T03:05:25;17.80;99.90
15413;DHT22;7805;49.554;7.632;2022-10-16T03:07:50;16.30;99.90
15413;DHT22;7805;49.554;7.632;2022-10-16T03:10:17;16.30;99.90
15413;DHT22;7805;49.554;7.632;2022-10-16T03:12:43;16.30;99.90
15413;DHT22;7805;49.554;7.632;2022-10-16T03:15:09;16.30;99.90
15413;DHT22;7805;49.554;7.632;2022-10-16T03:17:34;16.30;99.90
15413;DHT22;7805;49.554;7.632;2022-10-16T03:20:00;16.30;99.90
15413;DHT22;7805;49.554;7.632;2022-10-16T03:22:25;16.30;99.90
15413;DHT22;7805;49.554;7.632;2022-10-16T03:24:51;14.60;99.90
15413;DHT22;7805;49.554;7.632;2022-10-16T03:27:17;16.40;99.90
15413;DHT22;7805;49.554;7.632;2022-10-16T03:29:42;16.30;99.90
15413;DHT22;7805;49.554;7.632;2022-10-16T03:32:08;16.40;99.90
15413;DHT22;7805;49.554;7.632;2022-10-16T03:34:33;16.20;99.90
15413;DHT22;7805;49.554;7.632;2022-10-16T03:36:59;16.30;99.90
15413;DHT22;7805;49.554;7.632;2022-10-16T03:39:24;16.30;99.90
15413;DHT22;7805;49.554;7.632;2022-10-16T03:41:50;16.30;99.90
15413;DHT22;7805;49.554;7.632;2022-10-16T03:44:16;16.30;99.90
15413;DHT22;7805;49.554;7.632;2022-10-16T03:46:41;16.30;99.90
15413;DHT22;7805;49.554;7.632;2022-10-16T03:49:07;16.30;99.90
15413;DHT22;7805;49.554;7.632;2022-10-16T03:51:32;16.30;99.90
15413;DHT22;7805;49.554;7.632;2022-10-16T03:53:58;16.30;99.90
15413;DHT22;7805;49.554;7.632;2022-10-16T03:56:23;16.30;99.90
15413;DHT22;7805;49.554;7.632;2022-10-16T03:58:49;16.30;99.90
15413;DHT22;7805;49.554;7.632;2022-10-16T04:01:14;16.30;99.90
15413;DHT22;7805;49.554;7.632;2022-10-16T04:03:40;16.40;99.90
15413;DHT22;7805;49.554;7.632;2022-10-16T04:06:06;16.40;99.90
15413;DHT22;7805;49.554;7.632;2022-10-16T04:08:31;16.20;99.90
15413;DHT22;7805;49.554;7.632;2022-10-16T04:11:00;16.20;99.90
15413;DHT22;7805;49.554;7.632;2022-10-16T04:13:26;16.20;99.90
15413;DHT22;7805;49.554;7.632;2022-10-16T04:15:51;16.20;99.90
15413;DHT22;7805;49.554;7.632;2022-10-16T04:18:17;16.20;99.90
15413;DHT22;7805;49.554;7.632;2022-10-16T04:20:42;16.30;99.90
15413;DHT22;7805;49.554;7.632;2022-10-16T04:23:08;16.20;99.90
15413;DHT22;7805;49.554;7.632;2022-10-16T04:25:34;16.30;99.90
15413;DHT22;7805;49.554;7.632;2022-10-16T04:27:59;16.20;99.90
15413;DHT22;7805;49.554;7.632;2022-10-16T04:30:25;16.30;99.90
15413;DHT22;7805;49.554;7.632;2022-10-16T04:32:51;16.30;99.90
15413;DHT22;7805;49.554;7.632;2022-10-16T04:35:18;16.30;99.90
15413;DHT22;7805;49.554;7.632;2022-10-16T04:37:44;16.30;99.90
15413;DHT22;7805;49.554;7.632;2022-10-16T04:40:10;16.30;99.90
15413;DHT22;7805;49.554;7.632;2022-10-16T04:42:36;16.30;99.90
15413;DHT22;7805;49.554;7.632;2022-10-16T04:45:02;16.40;99.90
15413;DHT22;7805;49.554;7.632;2022-10-16T04:47:28;16.40;99.90
15413;DHT22;7805;49.554;7.632;2022-10-16T04:49:54;16.50;99.90
15413;DHT22;7805;49.554;7.632;2022-10-16T04:52:19;16.40;99.90
15413;DHT22;7805;49.554;7.632;2022-10-16T04:54:46;16.50;99.90
15413;DHT22;7805;49.554;7.632;2022-10-16T04:57:12;16.30;99.90
15413;DHT22;7805;49.554;7.632;2022-10-16T04:59:38;16.30;99.90
15413;DHT22;7805;49.554;7.632;2022-10-16T05:02:03;16.30;99.90
15413;DHT22;7805;49.554;7.632;2022-10-16T05:04:29;16.30;99.90
15413;DHT22;7805;49.554;7.632;2022-10-16T05:06:54;16.40;99.90
15413;DHT22;7805;49.554;7.632;2022-10-16T05:09:20;16.30;99.90
15413;DHT22;7805;49.554;7.632;2022-10-16T05:11:46;16.30;99.90
15413;DHT22;7805;49.554;7.632;2022-10-16T05:14:11;16.20;99.90
15413;DHT22;7805;49.554;7.632;2022-10-16T05:16:37;16.20;99.90
15413;DHT22;7805;49.554;7.632;2022-10-16T05:19:02;16.70;99.90
15413;DHT22;7805;49.554;7.632;2022-10-16T05:21:28;16.30;99.90
15413;DHT22;7805;49.554;7.632;2022-10-16T05:23:53;16.30;99.90
15413;DHT22;7805;49.554;7.632;2022-10-16T05:26:20;16.30;99.90
15413;DHT22;7805;49.554;7.632;2022-10-16T05:28:46;16.40;99.90
15413;DHT22;7805;49.554;7.632;2022-10-16T05:31:11;16.40;99.90
15413;DHT22;7805;49.554;7.632;2022-10-16T05:33:37;16.30;99.90
15413;DHT22;7805;49.554;7.632;2022-10-16T05:36:07;16.30;99.90
15413;DHT22;7805;49.554;7.632;2022-10-16T05:38:37;16.50;99.90
15413;DHT22;7805;49.554;7.632;2022-10-16T05:41:04;16.30;99.90
15413;DHT22;7805;49.554;7.632;2022-10-16T05:43:31;16.30;99.90
15413;DHT22;7805;49.554;7.632;2022-10-16T05:46:03;16.20;99.90
15413;DHT22;7805;49.554;7.632;2022-10-16T05:48:30;16.20;99.90
15413;DHT22;7805;49.554;7.632;2022-10-16T05:51:06;16.40;99.90
15413;DHT22;7805;49.554;7.632;2022-10-16T05:53:34;16.30;99.90
15413;DHT22;7805;49.554;7.632;2022-10-16T05:56:01;16.40;99.90
15413;DHT22;7805;49.554;7.632;2022-10-16T05:58:33;16.40;99.90
15413;DHT22;7805;49.554;7.632;2022-10-16T06:01:02;16.30;99.90
15413;DHT22;7805;49.554;7.632;2022-10-16T06:03:28;16.40;99.90
15413;DHT22;7805;49.554;7.632;2022-10-16T06:05:53;16.40;99.90
15413;DHT22;7805;49.554;7.632;2022-10-16T06:08:21;16.30;99.90
15413;DHT22;7805;49.554;7.632;2022-10-16T06:10:47;16.30;99.90
15413;DHT22;7805;49.554;7.632;2022-10-16T06:13:13;16.40;99.90
15413;DHT22;7805;49.554;7.632;2022-10-16T06:15:40;16.30;99.90
15413;DHT22;7805;49.554;7.632;2022-10-16T06:18:07;16.30;99.90
15413;DHT22;7805;49.554;7.632;2022-10-16T06:20:33;16.30;99.90
15413;DHT22;7805;49.554;7.632;2022-10-16T06:22:58;16.30;99.90
15413;DHT22;7805;49.554;7.632;2022-10-16T06:25:24;16.30;99.90
15413;DHT22;7805;49.554;7.632;2022-10-16T06:27:49;16.30;99.90
15413;DHT22;7805;49.554;7.632;2022-10-16T06:30:15;18.40;99.90
15413;DHT22;7805;49.554;7.632;2022-10-16T06:32:41;16.30;99.90
15413;DHT22;7805;49.554;7.632;2022-10-16T06:35:06;16.20;99.90
15413;DHT22;7805;49.554;7.632;2022-10-16T06:37:32;16.30;99.90
15413;DHT22;7805;49.554;7.632;2022-10-16T06:39:58;16.30;99.90
15413;DHT22;7805;49.554;7.632;2022-10-16T06:42:23;16.30;99.90
15413;DHT22;7805;49.554;7.632;2022-10-16T06:44:49;16.40;99.90
15413;DHT22;7805;49.554;7.632;2022-10-16T06:47:14;16.40;99.90
15413;DHT22;7805;49.554;7.632;2022-10-16T06:49:40;16.50;99.90
15413;DHT22;7805;49.554;7.632;2022-10-16T06:52:05;16.50;99.90
15413;DHT22;7805;49.554;7.632;2022-10-16T06:54:31;16.60;99.90
15413;DHT22;7805;49.554;7.632;2022-10-16T06:56:56;16.80;99.90
15413;DHT22;7805;49.554;7.632;2022-10-16T06:59:22;16.70;99.90
15413;DHT22;7805;49.554;7.632;2022-10-16T07:01:48;16.70;99.90
15413;DHT22;7805;49.554;7.632;2022-10-16T07:04:13;16.80;99.90
15413;DHT22;7805;49.554;7.632;2022-10-16T07:06:39;16.80;99.90
15413;DHT22;7805;49.554;7.632;2022-10-16T07:09:08;16.90;99.90
15413;DHT22;7805;49.554;7.632;2022-10-16T07:11:34;16.80;99.90
15413;DHT22;7805;49.554;7.632;2022-10-16T07:13:59;17.00;99.90
15413;DHT22;7805;49.554;7.632;2022-10-16T07:16:27;17.00;99.90
15413;DHT22;7805;49.554;7.632;2022-10-16T07:18:58;16.90;99.90
15413;DHT22;7805;49.554;7.632;2022-10-16T07:21:28;17.00;99.90
15413;DHT22;7805;49.554;7.632;2022-10-16T07:23:56;17.00;99.90
15413;DHT22;7805;49.554;7.632;2022-10-16T07:29:12;16.90;99.90
15413;DHT22;7805;49.554;7.632;2022-10-16T07:31:39;16.90;99.90
15413;DHT22;7805;49.554;7.632;2022-10-16T07:34:05;16.90;99.90
15413;DHT22;7805;49.554;7.632;2022-10-16T07:36:30;16.90;99.90
15413;DHT22;7805;49.554;7.632;2022-10-16T07:38:56;17.10;99.90
15413;DHT22;7805;49.554;7.632;2022-10-16T07:41:21;16.80;99.90
15413;DHT22;7805;49.554;7.632;2022-10-16T07:43:49;16.60;99.90
15413;DHT22;7805;49.554;7.632;2022-10-16T07:46:15;16.70;99.90
15413;DHT22;7805;49.554;7.632;2022-10-16T07:48:41;16.60;99.90
15413;DHT22;7805;49.554;7.632;2022-10-16T07:51:11;16.70;99.90
15413;DHT22;7805;49.554;7.632;2022-10-16T07:53:37;16.60;99.90
15413;DHT22;7805;49.554;7.632;2022-10-16T07:56:05;16.60;99.90
15413;DHT22;7805;49.554;7.632;2022-10-16T07:58:31;16.50;99.90
15413;DHT22;7805;49.554;7.632;2022-10-16T08:00:57;16.60;99.90
15413;DHT22;7805;49.554;7.632;2022-10-16T08:03:23;16.70;99.90
15413;DHT22;7805;49.554;7.632;2022-10-16T08:05:49;16.90;99.90
15413;DHT22;7805;49.554;7.632;2022-10-16T08:08:17;16.80;99.90
15413;DHT22;7805;49.554;7.632;2022-10-16T08:10:43;16.90;99.90
15413;DHT22;7805;49.554;7.632;2022-10-16T08:13:09;17.00;99.90
15413;DHT22;7805;49.554;7.632;2022-10-16T08:15:35;17.00;99.90
15413;DHT22;7805;49.554;7.632;2022-10-16T08:18:05;17.00;99.90
15413;DHT22;7805;49.554;7.632;2022-10-16T08:20:32;17.00;99.90
15413;DHT22;7805;49.554;7.632;2022-10-16T08:22:59;17.10;99.90
15413;DHT22;7805;49.554;7.632;2022-10-16T08:25:24;17.20;99.90
15413;DHT22;7805;49.554;7.632;2022-10-16T08:27:50;17.20;99.90
15413;DHT22;7805;49.554;7.632;2022-10-16T08:30:17;17.20;99.90
15413;DHT22;7805;49.554;7.632;2022-10-16T08:32:42;17.30;99.90
15413;DHT22;7805;49.554;7.632;2022-10-16T08:35:09;17.50;99.90
15413;DHT22;7805;49.554;7.632;2022-10-16T08:37:36;17.80;99.90
15413;DHT22;7805;49.554;7.632;2022-10-16T08:40:03;17.80;99.90
15413;DHT22;7805;49.554;7.632;2022-10-16T08:50:50;18.40;99.90
15413;DHT22;7805;49.554;7.632;2022-10-16T08:56:10;18.70;99.90
15413;DHT22;7805;49.554;7.632;2022-10-16T08:58:35;18.80;99.90
15413;DHT22;7805;49.554;7.632;2022-10-16T09:01:04;18.80;99.90
15413;DHT22;7805;49.554;7.632;2022-10-16T09:12:03;19.80;99.90
15413;DHT22;7805;49.554;7.632;2022-10-16T09:14:47;20.00;99.90
15413;DHT22;7805;49.554;7.632;2022-10-16T09:19:53;20.50;99.90
15413;DHT22;7805;49.554;7.632;2022-10-16T09:22:24;20.90;99.90
15413;DHT22;7805;49.554;7.632;2022-10-16T09:24:50;20.90;99.90
15413;DHT22;7805;49.554;7.632;2022-10-16T09:27:16;21.00;99.90
15413;DHT22;7805;49.554;7.632;2022-10-16T09:29:41;21.20;99.90
15413;DHT22;7805;49.554;7.632;2022-10-16T09:32:11;21.30;99.90
15413;DHT22;7805;49.554;7.632;2022-10-16T09:34:42;21.40;99.90
15413;DHT22;7805;49.554;7.632;2022-10-16T09:37:14;21.30;99.90
15413;DHT22;7805;49.554;7.632;2022-10-16T09:40:00;21.10;99.90
15413;DHT22;7805;49.554;7.632;2022-10-16T09:42:32;20.80;99.90
15413;DHT22;7805;49.554;7.632;2022-10-16T09:44:59;20.60;99.90
15413;DHT22;7805;49.554;7.632;2022-10-16T09:47:29;20.60;99.90
15413;DHT22;7805;49.554;7.632;2022-10-16T09:49:56;20.60;99.90
15413;DHT22;7805;49.554;7.632;2022-10-16T09:52:23;20.60;99.90
15413;DHT22;7805;49.554;7.632;2022-10-16T09:54:51;20.60;99.90
15413;DHT22;7805;49.554;7.632;2022-10-16T09:57:17;20.50;99.90
15413;DHT22;7805;49.554;7.632;2022-10-16T09:59:50;20.40;99.90
15413;DHT22;7805;49.554;7.632;2022-10-16T10:02:19;20.40;99.90
15413;DHT22;7805;49.554;7.632;2022-10-16T10:04:55;20.60;99.90
15413;DHT22;7805;49.554;7.632;2022-10-16T10:07:33;20.60;99.90
15413;DHT22;7805;49.554;7.632;2022-10-16T10:10:02;20.70;99.90
15413;DHT22;7805;49.554;7.632;2022-10-16T10:12:30;20.80;99.90
15413;DHT22;7805;49.554;7.632;2022-10-16T10:15:10;20.80;99.90
15413;DHT22;7805;49.554;7.632;2022-10-16T10:20:35;20.50;99.90
15413;DHT22;7805;49.554;7.632;2022-10-16T10:23:25;20.50;99.90
15413;DHT22;7805;49.554;7.632;2022-10-16T10:26:10;20.50;99.90
15413;DHT22;7805;49.554;7.632;2022-10-16T10:34:55;20.60;99.90
15413;DHT22;7805;49.554;7.632;2022-10-16T10:37:48;20.60;99.90
15413;DHT22;7805;49.554;7.632;2022-10-16T10:40:39;20.70;99.90
15413;DHT22;7805;49.554;7.632;2022-10-16T10:43:27;20.80;99.90
15413;DHT22;7805;49.554;7.632;2022-10-16T10:45:59;20.70;99.90
15413;DHT22;7805;49.554;7.632;2022-10-16T10:48:52;20.70;99.90
15413;DHT22;7805;49.554;7.632;2022-10-16T10:51:37;20.80;99.90
15413;DHT22;7805;49.554;7.632;2022-10-16T10:54:28;20.70;99.90
15413;DHT22;7805;49.554;7.632;2022-10-16T11:05:49;20.40;99.90
15413;DHT22;7805;49.554;7.632;2022-10-16T11:08:25;20.40;99.90
15413;DHT22;7805;49.554;7.632;2022-10-16T11:11:06;20.40;99.90
15413;DHT22;7805;49.554;7.632;2022-10-16T11:13:35;20.50;99.90
15413;DHT22;7805;49.554;7.632;2022-10-16T11:16:13;20.50;99.90
15413;DHT22;7805;49.554;7.632;2022-10-16T11:19:03;20.60;99.90
15413;DHT22;7805;49.554;7.632;2022-10-16T11:21:43;20.70;99.90
15413;DHT22;7805;49.554;7.632;2022-10-16T11:27:08;21.00;99.90
15413;DHT22;7805;49.554;7.632;2022-10-16T11:29:35;20.90;99.90
15413;DHT22;7805;49.554;7.632;2022-10-16T11:32:18;20.80;99.90
15413;DHT22;7805;49.554;7.632;2022-10-16T11:34:54;20.80;99.90
15413;DHT22;7805;49.554;7.632;2022-10-16T11:37:30;20.70;99.90
15413;DHT22;7805;49.554;7.632;2022-10-16T11:40:16;20.70;99.90
15413;DHT22;7805;49.554;7.632;2022-10-16T11:45:43;20.90;99.90
15413;DHT22;7805;49.554;7.632;2022-10-16T11:50:53;21.10;99.90
15413;DHT22;7805;49.554;7.632;2022-10-16T11:56:00;21.30;99.90
15413;DHT22;7805;49.554;7.632;2022-10-16T11:58:33;21.60;99.90
15413;DHT22;7805;49.554;7.632;2022-10-16T12:09:34;23.30;99.90
15413;DHT22;7805;49.554;7.632;2022-10-16T12:12:01;23.50;99.90
15413;DHT22;7805;49.554;7.632;2022-10-16T12:17:00;23.00;99.90
15413;DHT22;7805;49.554;7.632;2022-10-16T12:19:30;22.80;99.90
15413;DHT22;7805;49.554;7.632;2022-10-16T12:22:02;22.70;99.90
15413;DHT22;7805;49.554;7.632;2022-10-16T12:24:36;22.40;99.90
15413;DHT22;7805;49.554;7.632;2022-10-16T12:27:04;22.40;99.90
15413;DHT22;7805;49.554;7.632;2022-10-16T12:29:41;22.20;99.90
15413;DHT22;7805;49.554;7.632;2022-10-16T12:32:28;22.20;99.90
15413;DHT22;7805;49.554;7.632;2022-10-16T12:34:54;22.20;99.90
15413;DHT22;7805;49.554;7.632;2022-10-16T12:37:34;22.10;99.90
15413;DHT22;7805;49.554;7.632;2022-10-16T12:40:33;22.10;99.90
15413;DHT22;7805;49.554;7.632;2022-10-16T12:42:57;22.00;99.90
15413;DHT22;7805;49.554;7.632;2022-10-16T12:47:57;21.70;99.90
15413;DHT22;7805;49.554;7.632;2022-10-16T12:50:38;21.60;99.90
15413;DHT22;7805;49.554;7.632;2022-10-16T12:53:26;21.60;99.90
15413;DHT22;7805;49.554;7.632;2022-10-16T12:56:23;21.50;99.90
15413;DHT22;7805;49.554;7.632;2022-10-16T12:58:56;21.70;99.90
15413;DHT22;7805;49.554;7.632;2022-10-16T13:04:36;21.60;99.90
15413;DHT22;7805;49.554;7.632;2022-10-16T13:07:18;21.50;99.90
15413;DHT22;7805;49.554;7.632;2022-10-16T13:10:04;21.50;99.90
15413;DHT22;7805;49.554;7.632;2022-10-16T13:20:12;22.70;99.90
15413;DHT22;7805;49.554;7.632;2022-10-16T13:25:41;23.20;99.90
15413;DHT22;7805;49.554;7.632;2022-10-16T13:28:10;23.00;99.90
15413;DHT22;7805;49.554;7.632;2022-10-16T13:30:53;22.80;99.90
15413;DHT22;7805;49.554;7.632;2022-10-16T13:33:21;22.60;99.90
15413;DHT22;7805;49.554;7.632;2022-10-16T13:35:53;22.50;99.90
15413;DHT22;7805;49.554;7.632;2022-10-16T13:38:24;22.50;99.90
15413;DHT22;7805;49.554;7.632;2022-10-16T13:41:04;22.50;99.90
15413;DHT22;7805;49.554;7.632;2022-10-16T13:43:40;22.50;99.90
15413;DHT22;7805;49.554;7.632;2022-10-16T13:46:19;22.50;99.90
15413;DHT22;7805;49.554;7.632;2022-10-16T13:48:56;22.80;99.90
15413;DHT22;7805;49.554;7.632;2022-10-16T13:51:22;22.70;99.90
15413;DHT22;7805;49.554;7.632;2022-10-16T13:53:48;22.60;99.90
15413;DHT22;7805;49.554;7.632;2022-10-16T13:56:16;22.60;99.90
15413;DHT22;7805;49.554;7.632;2022-10-16T13:58:43;22.90;99.90
15413;DHT22;7805;49.554;7.632;2022-10-16T14:01:26;22.60;99.90
15413;DHT22;7805;49.554;7.632;2022-10-16T14:04:07;22.60;99.90
15413;DHT22;7805;49.554;7.632;2022-10-16T14:06:33;22.70;99.90
15413;DHT22;7805;49.554;7.632;2022-10-16T14:09:20;22.70;99.90
15413;DHT22;7805;49.554;7.632;2022-10-16T14:11:53;22.80;99.90
15413;DHT22;7805;49.554;7.632;2022-10-16T14:14:19;22.90;99.90
15413;DHT22;7805;49.554;7.632;2022-10-16T14:16:45;22.90;99.90
15413;DHT22;7805;49.554;7.632;2022-10-16T14:19:28;23.10;99.90
15413;DHT22;7805;49.554;7.632;2022-10-16T14:21:55;22.90;99.90
15413;DHT22;7805;49.554;7.632;2022-10-16T14:24:31;22.90;99.90
15413;DHT22;7805;49.554;7.632;2022-10-16T14:26:57;22.90;99.90
15413;DHT22;7805;49.554;7.632;2022-10-16T14:29:25;23.00;99.90
15413;DHT22;7805;49.554;7.632;2022-10-16T14:32:03;23.10;99.90
15413;DHT22;7805;49.554;7.632;2022-10-16T14:39:33;23.00;99.90
15413;DHT22;7805;49.554;7.632;2022-10-16T14:41:59;23.10;99.90
15413;DHT22;7805;49.554;7.632;2022-10-16T14:44:29;23.20;99.90
15413;DHT22;7805;49.554;7.632;2022-10-16T14:46:56;23.40;99.90
15413;DHT22;7805;49.554;7.632;2022-10-16T14:49:23;23.40;99.90
15413;DHT22;7805;49.554;7.632;2022-10-16T14:51:49;23.60;99.90
15413;DHT22;7805;49.554;7.632;2022-10-16T14:54:16;23.70;99.90
15413;DHT22;7805;49.554;7.632;2022-10-16T14:56:52;23.70;99.90
15413;DHT22;7805;49.554;7.632;2022-10-16T14:59:36;23.30;99.90
15413;DHT22;7805;49.554;7.632;2022-10-16T15:04:49;22.70;99.90
15413;DHT22;7805;49.554;7.632;2022-10-16T15:07:15;22.60;99.90
15413;DHT22;7805;49.554;7.632;2022-10-16T15:09:40;22.60;99.90
15413;DHT22;7805;49.554;7.632;2022-10-16T15:12:06;22.40;99.90
15413;DHT22;7805;49.554;7.632;2022-10-16T15:14:32;22.40;99.90
15413;DHT22;7805;49.554;7.632;2022-10-16T15:16:57;22.50;99.90
15413;DHT22;7805;49.554;7.632;2022-10-16T15:19:23;22.60;99.90
15413;DHT22;7805;49.554;7.632;2022-10-16T15:21:48;22.50;99.90
15413;DHT22;7805;49.554;7.632;2022-10-16T15:24:15;22.40;99.90
15413;DHT22;7805;49.554;7.632;2022-10-16T15:26:40;22.40;99.90
15413;DHT22;7805;49.554;7.632;2022-10-16T15:29:07;22.30;99.90
15413;DHT22;7805;49.554;7.632;2022-10-16T15:31:33;22.20;99.90
15413;DHT22;7805;49.554;7.632;2022-10-16T15:33:59;22.20;99.90
15413;DHT22;7805;49.554;7.632;2022-10-16T15:36:32;22.20;99.90
15413;DHT22;7805;49.554;7.632;2022-10-16T15:38:59;22.10;99.90
15413;DHT22;7805;49.554;7.632;2022-10-16T15:41:25;21.90;99.90
15413;DHT22;7805;49.554;7.632;2022-10-16T15:43:51;22.30;99.90
15413;DHT22;7805;49.554;7.632;2022-10-16T15:46:21;21.90;99.90
15413;DHT22;7805;49.554;7.632;2022-10-16T15:48:55;21.80;99.90
15413;DHT22;7805;49.554;7.632;2022-10-16T15:51:21;21.70;99.90
15413;DHT22;7805;49.554;7.632;2022-10-16T15:53:46;21.50;99.90
15413;DHT22;7805;49.554;7.632;2022-10-16T15:56:13;21.50;99.90
15413;DHT22;7805;49.554;7.632;2022-10-16T15:58:39;21.50;99.90
15413;DHT22;7805;49.554;7.632;2022-10-16T16:01:05;21.40;99.90
15413;DHT22;7805;49.554;7.632;2022-10-16T16:03:32;21.40;99.90
15413;DHT22;7805;49.554;7.632;2022-10-16T16:05:58;21.30;99.90
15413;DHT22;7805;49.554;7.632;2022-10-16T16:08:24;21.50;99.90
15413;DHT22;7805;49.554;7.632;2022-10-16T16:11:05;21.40;99.90
15413;DHT22;7805;49.554;7.632;2022-10-16T16:13:31;21.30;99.90
15413;DHT22;7805;49.554;7.632;2022-10-16T16:15:57;21.40;99.90
15413;DHT22;7805;49.554;7.632;2022-10-16T16:18:22;21.20;99.90
15413;DHT22;7805;49.554;7.632;2022-10-16T16:20:49;21.00;99.90
15413;DHT22;7805;49.554;7.632;2022-10-16T16:23:15;21.00;99.90
15413;DHT22;7805;49.554;7.632;2022-10-16T16:25:41;20.90;99.90
15413;DHT22;7805;49.554;7.632;2022-10-16T16:28:07;20.80;99.90
15413;DHT22;7805;49.554;7.632;2022-10-16T16:30:32;20.70;99.90
15413;DHT22;7805;49.554;7.632;2022-10-16T16:32:58;20.60;99.90
15413;DHT22;7805;49.554;7.632;2022-10-16T16:35:24;20.70;99.90
15413;DHT22;7805;49.554;7.632;2022-10-16T16:37:49;20.50;99.90
15413;DHT22;7805;49.554;7.632;2022-10-16T16:40:15;20.30;99.90
15413;DHT22;7805;49.554;7.632;2022-10-16T16:42:40;20.20;99.90
15413;DHT22;7805;49.554;7.632;2022-10-16T16:45:06;20.40;99.90
15413;DHT22;7805;49.554;7.632;2022-10-16T16:47:32;20.10;99.90
15413;DHT22;7805;49.554;7.632;2022-10-16T16:49:58;20.00;99.90
15413;DHT22;7805;49.554;7.632;2022-10-16T16:52:23;18.80;99.90
15413;DHT22;7805;49.554;7.632;2022-10-16T16:54:49;19.90;99.90
15413;DHT22;7805;49.554;7.632;2022-10-16T16:57:18;19.80;99.90
15413;DHT22;7805;49.554;7.632;2022-10-16T16:59:43;19.60;99.90
15413;DHT22;7805;49.554;7.632;2022-10-16T17:02:09;19.60;99.90
15413;DHT22;7805;49.554;7.632;2022-10-16T17:04:34;19.50;99.90
15413;DHT22;7805;49.554;7.632;2022-10-16T17:07:00;19.40;99.90
15413;DHT22;7805;49.554;7.632;2022-10-16T17:09:26;19.30;99.90
15413;DHT22;7805;49.554;7.632;2022-10-16T17:11:52;19.30;99.90
15413;DHT22;7805;49.554;7.632;2022-10-16T17:14:18;19.20;99.90
15413;DHT22;7805;49.554;7.632;2022-10-16T17:16:44;19.10;99.90
15413;DHT22;7805;49.554;7.632;2022-10-16T17:19:13;19.00;99.90
15413;DHT22;7805;49.554;7.632;2022-10-16T17:21:40;18.90;99.90
15413;DHT22;7805;49.554;7.632;2022-10-16T17:24:06;18.90;99.90
15413;DHT22;7805;49.554;7.632;2022-10-16T17:26:32;18.80;99.90
15413;DHT22;7805;49.554;7.632;2022-10-16T17:29:00;18.80;99.90
15413;DHT22;7805;49.554;7.632;2022-10-16T17:31:32;18.70;99.90
15413;DHT22;7805;49.554;7.632;2022-10-16T17:33:59;18.60;99.90
15413;DHT22;7805;49.554;7.632;2022-10-16T17:36:25;18.60;99.90
15413;DHT22;7805;49.554;7.632;2022-10-16T17:38:53;18.50;99.90
15413;DHT22;7805;49.554;7.632;2022-10-16T17:41:22;18.40;99.90
15413;DHT22;7805;49.554;7.632;2022-10-16T17:43:48;18.40;99.90
15413;DHT22;7805;49.554;7.632;2022-10-16T17:46:15;18.40;99.90
15413;DHT22;7805;49.554;7.632;2022-10-16T17:48:43;18.50;99.90